Time;durP1;ratioP1;P1;durP2;ratioP2;P2;SDS_P1;SDS_P2;PMS_P1;PMS_P2;Temp;Humidity;BMP_temperature;BMP_pressure;BME280_temperature;BME280_humidity;BME280_pressure;Samples;Min_cycle;Max_cycle;Signal;HPM_P1;HPM_P2
2021/08/30 00:02:29;;;;;;;4.40;2.00;;;;;;;;;;10394041;28;20237;-70
2021/08/30 00:07:32;;;;;;;4.10;1.93;;;;;;;;;;10390433;28;20193;-70
2021/08/30 00:12:40;;;;;;;4.10;2.07;;;;;;;;;;10390857;28;20194;-72
2021/08/30 00:17:45;;;;;;;4.53;2.10;;;;;;;;;;10395253;28;20308;-72
2021/08/30 00:22:47;;;;;;;5.13;2.10;;;;;;;;;;10390143;28;20654;-72
2021/08/30 00:27:52;;;;;;;3.57;1.73;;;;;;;;;;10379279;28;20590;-69
2021/08/30 00:32:55;;;;;;;4.03;2.10;;;;;;;;;;10391054;28;20355;-71
2021/08/30 00:37:57;;;;;;;4.67;2.20;;;;;;;;;;10390743;28;20217;-71
2021/08/30 00:43:02;;;;;;;3.20;1.90;;;;;;;;;;10393204;28;20574;-71
2021/08/30 00:48:05;;;;;;;3.73;1.90;;;;;;;;;;10394486;28;20623;-71
2021/08/30 00:53:07;;;;;;;4.37;2.23;;;;;;;;;;10392837;28;20597;-72
2021/08/30 00:58:12;;;;;;;5.10;2.00;;;;;;;;;;10394361;28;20237;-70
2021/08/30 01:03:14;;;;;;;5.00;2.17;;;;;;;;;;10395855;28;20209;-71
2021/08/30 01:08:21;;;;;;;4.03;2.13;;;;;;;;;;10392204;28;20630;-70
2021/08/30 01:13:30;;;;;;;4.33;1.90;;;;;;;;;;10389873;28;20213;-69
2021/08/30 01:18:50;;;;;;;3.87;1.73;;;;;;;;;;10390261;28;20202;-70
2021/08/30 01:23:57;;;;;;;4.00;1.87;;;;;;;;;;10402975;28;20334;-69
2021/08/30 01:29:06;;;;;;;3.23;1.63;;;;;;;;;;10393196;28;20273;-71
2021/08/30 01:34:10;;;;;;;4.17;1.97;;;;;;;;;;10392664;28;20647;-71
2021/08/30 01:39:13;;;;;;;3.97;2.00;;;;;;;;;;10392999;28;20237;-71
2021/08/30 01:44:16;;;;;;;4.80;2.40;;;;;;;;;;10406572;28;20671;-72
2021/08/30 01:49:21;;;;;;;4.93;2.23;;;;;;;;;;10403324;28;20292;-71
2021/08/30 01:54:24;;;;;;;4.60;2.13;;;;;;;;;;10401782;28;20220;-70
2021/08/30 02:04:49;;;;;;;4.10;1.90;;;;;;;;;;10399669;28;20658;-69
2021/08/30 02:09:52;;;;;;;6.03;2.53;;;;;;;;;;10396727;28;20653;-70
2021/08/30 02:14:55;;;;;;;5.93;2.47;;;;;;;;;;10401302;28;20301;-70
2021/08/30 02:20:03;;;;;;;5.13;2.10;;;;;;;;;;10400679;28;20264;-71
2021/08/30 02:25:07;;;;;;;5.07;2.13;;;;;;;;;;10401796;28;20759;-72
2021/08/30 02:30:13;;;;;;;5.63;2.60;;;;;;;;;;10399466;28;21994;-70
2021/08/30 02:35:19;;;;;;;5.53;2.60;;;;;;;;;;10401130;28;20308;-69
2021/08/30 02:40:24;;;;;;;5.63;2.70;;;;;;;;;;10396767;28;20708;-70
2021/08/30 02:45:28;;;;;;;5.80;2.70;;;;;;;;;;10411969;28;20293;-68
2021/08/30 02:50:32;;;;;;;3.17;1.70;;;;;;;;;;10395421;28;20618;-70
2021/08/30 02:55:35;;;;;;;5.53;2.43;;;;;;;;;;10398468;28;20221;-71
2021/08/30 03:00:38;;;;;;;5.77;2.43;;;;;;;;;;10395309;28;20693;-70
2021/08/30 03:05:43;;;;;;;6.43;2.83;;;;;;;;;;10397562;28;20225;-70
2021/08/30 03:10:47;;;;;;;6.07;2.80;;;;;;;;;;10397755;28;20221;-68
2021/08/30 03:15:50;;;;;;;6.83;2.70;;;;;;;;;;10398374;28;20609;-70
2021/08/30 03:20:56;;;;;;;5.73;2.83;;;;;;;;;;10400193;28;20219;-72
2021/08/30 03:25:59;;;;;;;6.13;2.87;;;;;;;;;;10397325;28;20654;-70
2021/08/30 03:31:02;;;;;;;7.00;3.07;;;;;;;;;;10397545;28;20289;-70
2021/08/30 03:36:08;;;;;;;5.73;2.50;;;;;;;;;;10394282;28;20320;-72
2021/08/30 03:41:11;;;;;;;7.60;3.10;;;;;;;;;;10397599;28;20209;-72
2021/08/30 03:46:14;;;;;;;5.73;2.83;;;;;;;;;;10396243;28;20217;-71
2021/08/30 03:51:18;;;;;;;7.73;3.33;;;;;;;;;;10398603;28;20193;-71
2021/08/30 03:56:22;;;;;;;6.10;2.73;;;;;;;;;;10399556;28;20228;-71
2021/08/30 04:01:26;;;;;;;7.53;3.13;;;;;;;;;;10399624;28;20267;-71
2021/08/30 04:06:31;;;;;;;7.73;3.67;;;;;;;;;;10400510;28;20682;-70
2021/08/30 04:11:34;;;;;;;6.57;2.60;;;;;;;;;;10391907;28;20186;-69
2021/08/30 04:16:40;;;;;;;5.53;2.80;;;;;;;;;;10399680;28;20279;-70
2021/08/30 04:21:44;;;;;;;6.47;2.73;;;;;;;;;;10396243;28;20267;-71
2021/08/30 04:26:47;;;;;;;6.00;2.57;;;;;;;;;;10396477;28;20304;-72
2021/08/30 04:31:50;;;;;;;6.30;2.77;;;;;;;;;;10396097;28;20686;-71
2021/08/30 04:36:54;;;;;;;5.73;2.43;;;;;;;;;;10393285;28;20230;-71
2021/08/30 04:41:57;;;;;;;5.43;2.37;;;;;;;;;;10396381;28;20210;-71
2021/08/30 04:47:00;;;;;;;6.73;2.77;;;;;;;;;;10397328;28;20578;-72
2021/08/30 04:52:05;;;;;;;5.97;2.53;;;;;;;;;;10399022;28;20197;-71
2021/08/30 04:57:08;;;;;;;5.73;2.40;;;;;;;;;;10391589;28;20762;-69
2021/08/30 05:02:10;;;;;;;6.30;3.07;;;;;;;;;;10394011;28;20279;-69
2021/08/30 05:07:15;;;;;;;8.07;2.73;;;;;;;;;;10396310;28;20677;-72
2021/08/30 05:12:17;;;;;;;6.20;2.27;;;;;;;;;;10392491;28;20256;-70
2021/08/30 05:17:20;;;;;;;7.50;2.70;;;;;;;;;;10396617;28;20304;-71
2021/08/30 05:22:24;;;;;;;7.10;2.93;;;;;;;;;;10396325;28;20677;-70
2021/08/30 05:27:27;;;;;;;5.50;2.30;;;;;;;;;;10405880;28;20236;-70
2021/08/30 05:32:34;;;;;;;5.77;2.70;;;;;;;;;;10407461;28;20197;-71
2021/08/30 05:37:38;;;;;;;7.97;2.97;;;;;;;;;;10405340;28;20229;-71
2021/08/30 05:42:41;;;;;;;7.33;2.47;;;;;;;;;;10401924;28;20687;-72
2021/08/30 05:47:43;;;;;;;3.40;1.30;;;;;;;;;;10406983;28;20198;-74
2021/08/30 05:52:49;;;;;;;8.30;2.73;;;;;;;;;;10403305;28;20205;-72
2021/08/30 05:57:52;;;;;;;6.13;2.33;;;;;;;;;;10400820;28;20214;-73
2021/08/30 06:02:55;;;;;;;3.63;1.63;;;;;;;;;;10400886;28;20252;-72
2021/08/30 06:07:59;;;;;;;3.80;1.90;;;;;;;;;;10403025;28;20299;-72
2021/08/30 06:13:02;;;;;;;4.67;1.93;;;;;;;;;;10411815;28;20217;-72
2021/08/30 06:18:05;;;;;;;5.33;2.10;;;;;;;;;;10406555;28;20209;-72
2021/08/30 06:23:09;;;;;;;3.90;1.80;;;;;;;;;;10404153;28;20234;-72
2021/08/30 06:28:12;;;;;;;4.53;2.00;;;;;;;;;;10399730;28;20206;-73
2021/08/30 06:33:15;;;;;;;3.50;1.80;;;;;;;;;;10398817;28;20218;-74
2021/08/30 06:38:20;;;;;;;3.33;1.57;;;;;;;;;;10403815;28;20245;-74
2021/08/30 06:43:23;;;;;;;5.20;2.03;;;;;;;;;;10404817;28;20223;-74
2021/08/30 06:48:26;;;;;;;2.87;1.43;;;;;;;;;;10402651;28;20182;-70
2021/08/30 06:53:30;;;;;;;1.63;0.67;;;;;;;;;;10402623;28;20221;-72
2021/08/30 06:58:33;;;;;;;2.67;1.43;;;;;;;;;;10397798;28;20213;-73
2021/08/30 07:03:36;;;;;;;3.17;1.30;;;;;;;;;;10401020;28;20260;-72
2021/08/30 07:08:40;;;;;;;2.50;1.23;;;;;;;;;;10401285;28;20190;-73
2021/08/30 07:13:47;;;;;;;4.10;1.40;;;;;;;;;;10399195;28;20210;-74
2021/08/30 07:18:49;;;;;;;3.43;1.50;;;;;;;;;;10399028;28;20668;-73
2021/08/30 07:23:53;;;;;;;1.63;1.00;;;;;;;;;;10399339;28;20244;-74
2021/08/30 07:28:56;;;;;;;3.97;1.40;;;;;;;;;;10399042;28;20694;-74
2021/08/30 07:33:59;;;;;;;4.03;1.50;;;;;;;;;;10399923;28;20526;-74
2021/08/30 07:39:04;;;;;;;2.73;1.27;;;;;;;;;;10398847;28;20609;-73
2021/08/30 07:44:07;;;;;;;3.23;1.37;;;;;;;;;;10397621;28;20607;-73
2021/08/30 07:49:10;;;;;;;1.87;1.17;;;;;;;;;;10398725;28;20193;-73
2021/08/30 07:54:15;;;;;;;2.77;1.30;;;;;;;;;;10399801;28;20225;-73
2021/08/30 07:59:18;;;;;;;2.07;1.20;;;;;;;;;;10393125;28;20305;-72
2021/08/30 08:04:21;;;;;;;3.20;1.50;;;;;;;;;;10400415;28;20735;-74
2021/08/30 08:09:25;;;;;;;2.73;1.57;;;;;;;;;;10398954;28;20198;-74
2021/08/30 08:14:28;;;;;;;2.70;1.30;;;;;;;;;;10398476;28;20244;-73
2021/08/30 08:19:31;;;;;;;3.60;1.40;;;;;;;;;;10397129;28;20234;-73
2021/08/30 08:24:35;;;;;;;3.00;1.60;;;;;;;;;;10397268;28;20307;-75
2021/08/30 08:29:37;;;;;;;3.73;1.40;;;;;;;;;;10395477;28;20248;-73
2021/08/30 08:34:40;;;;;;;2.93;1.70;;;;;;;;;;10396007;28;20241;-74
2021/08/30 08:39:44;;;;;;;2.07;1.43;;;;;;;;;;10393802;28;20309;-74
2021/08/30 08:44:47;;;;;;;1.90;1.40;;;;;;;;;;10395475;28;20278;-75
2021/08/30 08:49:52;;;;;;;2.27;1.40;;;;;;;;;;10394466;28;20220;-74
2021/08/30 08:54:57;;;;;;;3.23;1.70;;;;;;;;;;10398996;28;20248;-73
2021/08/30 09:00:01;;;;;;;2.73;1.57;;;;;;;;;;10392648;28;20296;-74
2021/08/30 09:05:05;;;;;;;2.50;1.27;;;;;;;;;;10394468;28;20558;-73
2021/08/30 09:10:14;;;;;;;2.90;1.37;;;;;;;;;;10393099;28;20256;-73
2021/08/30 09:15:19;;;;;;;3.83;1.20;;;;;;;;;;10396179;28;20233;-74
2021/08/30 09:20:23;;;;;;;2.57;1.50;;;;;;;;;;10396673;28;20214;-72
2021/08/30 09:25:27;;;;;;;1.70;1.10;;;;;;;;;;10398022;28;20699;-73
2021/08/30 09:30:30;;;;;;;3.17;1.27;;;;;;;;;;10393415;28;20270;-72
2021/08/30 09:35:33;;;;;;;2.60;1.00;;;;;;;;;;10393488;28;20229;-75
2021/08/30 09:40:37;;;;;;;3.93;1.30;;;;;;;;;;10396202;28;20321;-73
2021/08/30 09:45:44;;;;;;;2.63;1.00;;;;;;;;;;10397880;28;20210;-74
2021/08/30 09:50:47;;;;;;;2.30;1.10;;;;;;;;;;10398799;28;21456;-72
2021/08/30 09:55:51;;;;;;;2.80;1.70;;;;;;;;;;10395674;28;20376;-72
2021/08/30 10:00:55;;;;;;;2.47;1.30;;;;;;;;;;10394625;28;20241;-73
2021/08/30 10:05:59;;;;;;;4.43;1.20;;;;;;;;;;10390523;28;20213;-72
2021/08/30 10:11:03;;;;;;;2.83;1.30;;;;;;;;;;10401535;28;20205;-72
2021/08/30 10:16:06;;;;;;;1.67;1.07;;;;;;;;;;10399222;28;20222;-74
2021/08/30 10:21:16;;;;;;;1.43;1.10;;;;;;;;;;10400984;28;20240;-74
2021/08/30 10:26:20;;;;;;;2.90;1.30;;;;;;;;;;10398624;28;20260;-74
2021/08/30 10:31:24;;;;;;;1.57;1.13;;;;;;;;;;10402563;28;20666;-74
2021/08/30 10:36:28;;;;;;;1.57;1.00;;;;;;;;;;10401531;28;20600;-73
2021/08/30 10:41:35;;;;;;;3.10;1.50;;;;;;;;;;10403159;28;20221;-73
2021/08/30 10:46:38;;;;;;;2.00;1.10;;;;;;;;;;10402318;28;20716;-72
2021/08/30 10:51:42;;;;;;;2.70;1.40;;;;;;;;;;10399479;28;20276;-73
2021/08/30 10:56:56;;;;;;;2.03;1.03;;;;;;;;;;10399839;28;20317;-72
2021/08/30 11:02:03;;;;;;;1.50;1.20;;;;;;;;;;10391270;28;21273;-72
2021/08/30 11:07:07;;;;;;;2.50;1.40;;;;;;;;;;10400787;28;20217;-72
2021/08/30 11:12:13;;;;;;;2.72;1.17;;;;;;;;;;10397696;28;20240;-73
2021/08/30 11:17:16;;;;;;;1.35;1.10;;;;;;;;;;10402132;28;20217;-74
2021/08/30 11:22:19;;;;;;;3.67;1.30;;;;;;;;;;10400910;28;20205;-75
2021/08/30 11:27:27;;;;;;;2.93;1.60;;;;;;;;;;10398901;28;20759;-74
2021/08/30 11:32:30;;;;;;;3.87;1.80;;;;;;;;;;10400621;28;20949;-74
2021/08/30 11:37:34;;;;;;;3.67;1.90;;;;;;;;;;10396381;28;20614;-73
2021/08/30 11:42:39;;;;;;;3.07;1.60;;;;;;;;;;10396953;28;20293;-72
2021/08/30 11:47:42;;;;;;;3.87;1.80;;;;;;;;;;10398837;28;20229;-75
2021/08/30 11:52:45;;;;;;;3.10;1.57;;;;;;;;;;10398058;28;20186;-74
2021/08/30 11:57:50;;;;;;;10.27;5.17;;;;;;;;;;10397224;28;20228;-74
2021/08/30 12:02:54;;;;;;;4.37;1.97;;;;;;;;;;10399410;28;20544;-74
2021/08/30 12:07:58;;;;;;;3.97;2.20;;;;;;;;;;10397723;28;20264;-74
2021/08/30 12:13:20;;;;;;;4.43;2.63;;;;;;;;;;10398118;28;20260;-74
2021/08/30 12:18:23;;;;;;;2.97;1.60;;;;;;;;;;10397948;28;20259;-74
2021/08/30 12:23:25;;;;;;;2.40;1.60;;;;;;;;;;10400837;28;20217;-73
2021/08/30 12:28:30;;;;;;;3.40;1.80;;;;;;;;;;10398312;28;20193;-73
2021/08/30 12:33:35;;;;;;;3.77;2.07;;;;;;;;;;10391006;28;22197;-74
2021/08/30 12:38:39;;;;;;;3.97;1.70;;;;;;;;;;10395098;28;20283;-74
2021/08/30 12:43:47;;;;;;;1.73;1.10;;;;;;;;;;10390809;28;20233;-73
2021/08/30 12:48:49;;;;;;;2.03;1.40;;;;;;;;;;10394035;28;20202;-75
2021/08/30 12:53:52;;;;;;;2.73;1.60;;;;;;;;;;10398001;28;20814;-73
2021/08/30 12:58:57;;;;;;;4.60;2.40;;;;;;;;;;10398270;28;20224;-73
2021/08/30 13:03:59;;;;;;;2.67;1.50;;;;;;;;;;10395701;28;20229;-73
2021/08/30 13:09:02;;;;;;;2.90;1.40;;;;;;;;;;10393401;28;20194;-71
2021/08/30 13:14:06;;;;;;;2.93;1.20;;;;;;;;;;10397387;28;20285;-73
2021/08/30 13:19:09;;;;;;;1.43;1.00;;;;;;;;;;10400090;28;20194;-73
2021/08/30 13:24:12;;;;;;;1.20;1.10;;;;;;;;;;10395042;28;20229;-71
2021/08/30 13:29:16;;;;;;;1.10;1.00;;;;;;;;;;10399976;28;20259;-72
2021/08/30 13:34:19;;;;;;;1.38;1.00;;;;;;;;;;10397320;28;20252;-72
2021/08/30 13:39:22;;;;;;;1.20;1.10;;;;;;;;;;10399731;28;20229;-70
2021/08/30 13:44:26;;;;;;;1.50;1.30;;;;;;;;;;10400387;28;20210;-72
2021/08/30 13:49:28;;;;;;;2.35;1.20;;;;;;;;;;10403408;28;20202;-69
2021/08/30 13:54:31;;;;;;;1.52;1.30;;;;;;;;;;10407204;28;20275;-72
2021/08/30 13:59:35;;;;;;;1.23;1.05;;;;;;;;;;10403487;28;20663;-72
2021/08/30 14:04:38;;;;;;;1.35;1.23;;;;;;;;;;10405724;28;20332;-72
2021/08/30 14:09:41;;;;;;;1.73;1.30;;;;;;;;;;10398237;28;20202;-71
2021/08/30 14:14:45;;;;;;;1.30;1.10;;;;;;;;;;10403645;28;20213;-72
2021/08/30 14:19:48;;;;;;;3.08;1.15;;;;;;;;;;10402949;28;21560;-71
2021/08/30 14:24:51;;;;;;;3.05;1.20;;;;;;;;;;10403410;28;20221;-70
2021/08/30 14:29:55;;;;;;;2.33;1.17;;;;;;;;;;10417057;28;20202;-69
2021/08/30 14:34:57;;;;;;;5.53;1.90;;;;;;;;;;10404233;28;20229;-71
2021/08/30 14:40:00;;;;;;;2.27;1.43;;;;;;;;;;10403330;28;20225;-71
2021/08/30 14:45:06;;;;;;;3.17;1.60;;;;;;;;;;10403061;28;20229;-71
2021/08/30 14:50:09;;;;;;;2.40;1.50;;;;;;;;;;10403266;28;20709;-71
2021/08/30 14:55:12;;;;;;;2.17;1.47;;;;;;;;;;10403746;28;20713;-71
2021/08/30 15:00:17;;;;;;;4.07;1.50;;;;;;;;;;10400509;28;20186;-72
2021/08/30 15:05:20;;;;;;;5.53;2.60;;;;;;;;;;10400871;28;20736;-72
2021/08/30 15:10:23;;;;;;;3.67;1.70;;;;;;;;;;10398090;28;20193;-70
2021/08/30 15:15:33;;;;;;;3.13;1.50;;;;;;;;;;10400013;28;20213;-72
2021/08/30 15:20:36;;;;;;;2.33;1.60;;;;;;;;;;10395282;28;20225;-72
2021/08/30 15:25:39;;;;;;;2.83;1.60;;;;;;;;;;10398181;28;20305;-71
2021/08/30 15:30:44;;;;;;;5.73;2.40;;;;;;;;;;10398355;28;20232;-68
2021/08/30 15:35:47;;;;;;;7.00;3.13;;;;;;;;;;10392063;28;20717;-70
2021/08/30 15:40:50;;;;;;;3.80;2.20;;;;;;;;;;10387417;28;20189;-69
2021/08/30 15:45:54;;;;;;;4.23;2.20;;;;;;;;;;10395239;28;20255;-72
2021/08/30 15:50:57;;;;;;;5.30;2.10;;;;;;;;;;10397442;28;20216;-71
2021/08/30 15:55:59;;;;;;;2.37;1.43;;;;;;;;;;10412384;28;20986;-71
2021/08/30 16:01:04;;;;;;;3.70;1.90;;;;;;;;;;10396417;28;20248;-72
2021/08/30 16:06:07;;;;;;;5.93;2.90;;;;;;;;;;10397850;28;20214;-72
2021/08/30 16:11:10;;;;;;;2.87;1.80;;;;;;;;;;10391234;28;20201;-70
2021/08/30 16:16:15;;;;;;;4.40;1.90;;;;;;;;;;10396806;28;20294;-71
2021/08/30 16:21:17;;;;;;;4.37;1.80;;;;;;;;;;10396507;28;20209;-72
2021/08/30 16:26:20;;;;;;;3.73;1.57;;;;;;;;;;10395032;28;20305;-71
2021/08/30 16:31:26;;;;;;;3.20;1.80;;;;;;;;;;10391624;28;20268;-71
2021/08/30 16:36:29;;;;;;;2.47;1.60;;;;;;;;;;10393399;28;20225;-72
2021/08/30 16:41:32;;;;;;;4.27;2.00;;;;;;;;;;10391227;28;20265;-71
2021/08/30 16:46:37;;;;;;;2.97;1.80;;;;;;;;;;10392075;28;20290;-72
2021/08/30 16:51:40;;;;;;;4.43;1.90;;;;;;;;;;10393391;28;20198;-72
2021/08/30 16:56:42;;;;;;;3.07;1.60;;;;;;;;;;10394888;28;20641;-69
2021/08/30 17:01:46;;;;;;;3.70;1.87;;;;;;;;;;10393957;28;20236;-71
2021/08/30 17:06:50;;;;;;;4.20;1.73;;;;;;;;;;10394018;28;20228;-70
2021/08/30 17:12:00;;;;;;;3.03;1.77;;;;;;;;;;10382121;28;20543;-72
2021/08/30 17:17:06;;;;;;;7.27;3.87;;;;;;;;;;10394897;28;20298;-70
2021/08/30 17:22:09;;;;;;;10.00;2.23;;;;;;;;;;10399585;28;20267;-71
2021/08/30 17:27:11;;;;;;;3.73;1.90;;;;;;;;;;10403973;28;20546;-72
2021/08/30 17:32:16;;;;;;;3.43;1.80;;;;;;;;;;10401073;28;20255;-74
2021/08/30 17:37:18;;;;;;;5.90;2.77;;;;;;;;;;10401740;28;20221;-71
2021/08/30 17:42:21;;;;;;;4.97;2.70;;;;;;;;;;10396048;28;20224;-71
2021/08/30 17:47:25;;;;;;;3.80;1.90;;;;;;;;;;10398297;28;20586;-72
2021/08/30 17:52:28;;;;;;;2.80;0.70;;;;;;;;;;10398908;28;20190;-72
2021/08/30 17:57:33;;;;;;;5.00;2.30;;;;;;;;;;10402164;28;20214;-72
2021/08/30 18:02:38;;;;;;;2.67;1.60;;;;;;;;;;10402627;28;20216;-71
2021/08/30 18:07:41;;;;;;;4.43;1.80;;;;;;;;;;10404124;28;20244;-72
2021/08/30 18:12:43;;;;;;;4.60;1.50;;;;;;;;;;10399641;28;20200;-73
2021/08/30 18:17:47;;;;;;;3.43;1.60;;;;;;;;;;10398907;28;20250;-72
2021/08/30 18:22:50;;;;;;;4.70;2.40;;;;;;;;;;10399169;28;20255;-73
2021/08/30 18:27:53;;;;;;;3.63;1.90;;;;;;;;;;10395476;28;20190;-72
2021/08/30 18:32:58;;;;;;;7.13;2.60;;;;;;;;;;10399842;28;20303;-72
2021/08/30 18:38:01;;;;;;;7.00;2.97;;;;;;;;;;10397380;28;20209;-72
2021/08/30 18:43:05;;;;;;;7.07;2.93;;;;;;;;;;10390748;28;20693;-72
2021/08/30 18:48:09;;;;;;;6.60;3.00;;;;;;;;;;10398231;28;20277;-71
2021/08/30 18:53:12;;;;;;;7.27;3.17;;;;;;;;;;10400185;28;20331;-73
2021/08/30 18:58:15;;;;;;;7.17;3.17;;;;;;;;;;10399090;28;20205;-73
2021/08/30 19:03:19;;;;;;;6.77;3.10;;;;;;;;;;10393998;28;20222;-73
2021/08/30 19:08:22;;;;;;;6.67;3.00;;;;;;;;;;10399990;28;20289;-74
2021/08/30 19:13:27;;;;;;;7.27;3.37;;;;;;;;;;10395672;28;20218;-73
2021/08/30 19:18:31;;;;;;;7.33;3.13;;;;;;;;;;10393877;28;20201;-71
2021/08/30 19:23:34;;;;;;;5.87;3.20;;;;;;;;;;10399302;28;20300;-71
2021/08/30 19:28:37;;;;;;;7.43;3.13;;;;;;;;;;10397674;28;20251;-71
2021/08/30 19:33:43;;;;;;;6.33;3.20;;;;;;;;;;10399830;28;20265;-71
2021/08/30 19:38:46;;;;;;;6.73;3.50;;;;;;;;;;10393291;28;20218;-71
2021/08/30 19:43:49;;;;;;;7.33;3.57;;;;;;;;;;10392960;28;20248;-71
2021/08/30 19:48:53;;;;;;;7.17;3.77;;;;;;;;;;10397935;28;20660;-71
2021/08/30 19:53:56;;;;;;;6.20;3.30;;;;;;;;;;10397447;28;20209;-71
2021/08/30 19:58:59;;;;;;;5.40;2.90;;;;;;;;;;10396089;28;20624;-72
2021/08/30 20:04:03;;;;;;;6.27;3.03;;;;;;;;;;10400117;28;20685;-73
2021/08/30 20:09:06;;;;;;;6.17;2.87;;;;;;;;;;10396462;28;20232;-73
2021/08/30 20:14:09;;;;;;;7.30;3.43;;;;;;;;;;10387670;28;20209;-71
2021/08/30 20:19:14;;;;;;;5.77;3.27;;;;;;;;;;10390910;28;20198;-71
2021/08/30 20:24:16;;;;;;;6.17;3.07;;;;;;;;;;10399540;28;20229;-72
2021/08/30 20:29:22;;;;;;;6.37;3.00;;;;;;;;;;10395027;28;20293;-72
2021/08/30 20:34:27;;;;;;;7.00;2.80;;;;;;;;;;10389627;28;20230;-72
2021/08/30 20:39:32;;;;;;;6.17;2.73;;;;;;;;;;10391270;28;20246;-73
2021/08/30 20:44:35;;;;;;;6.67;3.07;;;;;;;;;;10387879;28;20572;-72
2021/08/30 20:49:39;;;;;;;6.23;2.83;;;;;;;;;;10390016;28;20430;-72
2021/08/30 20:54:42;;;;;;;7.30;3.30;;;;;;;;;;10393743;28;20352;-72
2021/08/30 20:59:45;;;;;;;9.33;3.50;;;;;;;;;;10394953;28;20557;-72
2021/08/30 21:04:51;;;;;;;6.20;3.37;;;;;;;;;;10395222;28;20224;-72
2021/08/30 21:09:54;;;;;;;7.27;3.60;;;;;;;;;;10395663;28;20198;-72
2021/08/30 21:14:57;;;;;;;7.23;3.33;;;;;;;;;;10396883;28;20593;-71
2021/08/30 21:20:01;;;;;;;7.60;3.90;;;;;;;;;;10394954;28;20272;-72
2021/08/30 21:25:04;;;;;;;7.13;3.50;;;;;;;;;;10392351;28;20237;-71
2021/08/30 21:30:07;;;;;;;7.17;3.23;;;;;;;;;;10394240;28;20558;-72
2021/08/30 21:35:12;;;;;;;7.13;3.47;;;;;;;;;;10391737;28;20218;-72
2021/08/30 21:40:14;;;;;;;6.63;3.67;;;;;;;;;;10391211;28;20208;-72
2021/08/30 21:45:17;;;;;;;8.30;3.93;;;;;;;;;;10400502;28;20236;-72
2021/08/30 21:50:21;;;;;;;7.50;3.67;;;;;;;;;;10393494;28;20217;-71
2021/08/30 21:55:24;;;;;;;7.93;4.40;;;;;;;;;;10389845;28;20242;-72
2021/08/30 22:00:27;;;;;;;9.60;4.50;;;;;;;;;;10395617;28;20248;-72
2021/08/30 22:05:31;;;;;;;9.73;4.90;;;;;;;;;;10400086;28;20729;-72
2021/08/30 22:10:34;;;;;;;10.17;4.97;;;;;;;;;;10402621;28;20217;-71
2021/08/30 22:15:37;;;;;;;9.67;5.17;;;;;;;;;;10404244;28;20693;-72
2021/08/30 22:20:41;;;;;;;10.90;5.40;;;;;;;;;;10400277;28;20186;-71
2021/08/30 22:25:44;;;;;;;10.73;5.30;;;;;;;;;;10406073;28;20229;-71
2021/08/30 22:30:47;;;;;;;10.53;5.53;;;;;;;;;;10402989;28;20198;-70
2021/08/30 22:35:51;;;;;;;10.20;5.27;;;;;;;;;;10399351;28;20299;-70
2021/08/30 22:40:54;;;;;;;10.33;5.27;;;;;;;;;;10397090;28;20273;-71
2021/08/30 22:45:57;;;;;;;9.00;4.60;;;;;;;;;;10398677;28;20272;-72
2021/08/30 22:51:01;;;;;;;10.30;5.60;;;;;;;;;;10400536;28;20198;-72
2021/08/30 22:56:04;;;;;;;8.93;4.80;;;;;;;;;;10402666;28;20217;-71
2021/08/30 23:01:07;;;;;;;10.60;5.03;;;;;;;;;;10401839;28;20636;-73
2021/08/30 23:06:11;;;;;;;12.23;5.43;;;;;;;;;;10401142;28;20295;-72
2021/08/30 23:11:14;;;;;;;9.83;5.20;;;;;;;;;;10398992;28;20190;-72
2021/08/30 23:16:17;;;;;;;9.80;5.30;;;;;;;;;;10398918;28;20206;-70
2021/08/30 23:21:21;;;;;;;9.93;4.77;;;;;;;;;;10401173;28;20197;-72
2021/08/30 23:26:24;;;;;;;9.67;4.90;;;;;;;;;;10413323;28;20226;-72
2021/08/30 23:31:27;;;;;;;9.07;4.67;;;;;;;;;;10400635;28;20265;-71
2021/08/30 23:36:31;;;;;;;8.83;4.73;;;;;;;;;;10398210;28;20225;-71
2021/08/30 23:41:34;;;;;;;11.50;5.13;;;;;;;;;;10396368;28;20202;-70
2021/08/30 23:46:37;;;;;;;10.10;4.83;;;;;;;;;;10398086;28;20250;-71
2021/08/30 23:51:41;;;;;;;11.57;5.20;;;;;;;;;;10399236;28;20197;-70
2021/08/30 23:56:44;;;;;;;11.47;6.07;;;;;;;;;;10396908;28;20300;-72
